sensor_id;sensor_type;location;lat;lon;timestamp;pressure;altitude;pressure_sealevel;temperature;humidity
5380;BME280;2713;42.680;23.310;2024-01-30T00:00:06;97038.97;;;4.05;53.51
5380;BME280;2713;42.680;23.310;2024-01-30T00:02:34;97046.38;;;3.81;54.07
5380;BME280;2713;42.680;23.310;2024-01-30T00:05:01;97040.63;;;4.06;53.35
5380;BME280;2713;42.680;23.310;2024-01-30T00:07:30;97035.84;;;4.00;53.55
5380;BME280;2713;42.680;23.310;2024-01-30T00:09:57;97044.75;;;4.08;53.62
5380;BME280;2713;42.680;23.310;2024-01-30T00:12:23;97043.72;;;3.83;54.02
5380;BME280;2713;42.680;23.310;2024-01-30T00:14:51;97048.94;;;3.81;53.48
5380;BME280;2713;42.680;23.310;2024-01-30T00:17:18;97050.63;;;3.82;53.61
5380;BME280;2713;42.680;23.310;2024-01-30T00:19:46;97046.81;;;3.74;54.11
5380;BME280;2713;42.680;23.310;2024-01-30T00:22:13;97045.22;;;3.87;54.35
5380;BME280;2713;42.680;23.310;2024-01-30T00:24:41;97045.06;;;3.74;53.35
5380;BME280;2713;42.680;23.310;2024-01-30T00:27:08;97047.69;;;3.88;53.81
5380;BME280;2713;42.680;23.310;2024-01-30T00:29:35;97046.47;;;3.94;53.61
5380;BME280;2713;42.680;23.310;2024-01-30T00:32:01;97046.59;;;3.92;53.54
5380;BME280;2713;42.680;23.310;2024-01-30T00:34:28;97047.31;;;3.94;52.74
5380;BME280;2713;42.680;23.310;2024-01-30T00:36:55;97047.97;;;3.98;53.56
5380;BME280;2713;42.680;23.310;2024-01-30T00:39:22;97041.06;;;3.98;53.88
5380;BME280;2713;42.680;23.310;2024-01-30T00:41:50;97039.22;;;3.86;53.16
5380;BME280;2713;42.680;23.310;2024-01-30T00:44:16;97040.25;;;3.98;52.93
5380;BME280;2713;42.680;23.310;2024-01-30T00:46:43;97045.34;;;3.84;53.64
5380;BME280;2713;42.680;23.310;2024-01-30T00:49:10;97044.19;;;3.89;53.91
5380;BME280;2713;42.680;23.310;2024-01-30T00:51:37;97048.50;;;3.89;54.00
5380;BME280;2713;42.680;23.310;2024-01-30T00:54:04;97044.38;;;3.27;54.93
5380;BME280;2713;42.680;23.310;2024-01-30T00:56:31;97045.41;;;3.08;55.36
5380;BME280;2713;42.680;23.310;2024-01-30T00:59:00;97050.34;;;3.27;55.42
5380;BME280;2713;42.680;23.310;2024-01-30T01:01:26;97046.81;;;3.60;54.02
5380;BME280;2713;42.680;23.310;2024-01-30T01:03:53;97049.88;;;3.50;54.31
5380;BME280;2713;42.680;23.310;2024-01-30T01:06:19;97053.09;;;3.54;54.22
5380;BME280;2713;42.680;23.310;2024-01-30T01:08:46;97049.38;;;3.74;53.58
5380;BME280;2713;42.680;23.310;2024-01-30T01:11:12;97045.34;;;3.84;54.47
5380;BME280;2713;42.680;23.310;2024-01-30T01:13:39;97043.06;;;3.79;53.81
5380;BME280;2713;42.680;23.310;2024-01-30T01:16:07;97043.06;;;3.79;53.30
5380;BME280;2713;42.680;23.310;2024-01-30T01:18:34;97041.69;;;3.88;53.18
5380;BME280;2713;42.680;23.310;2024-01-30T01:21:01;97047.28;;;3.80;54.37
5380;BME280;2713;42.680;23.310;2024-01-30T01:23:28;97051.94;;;3.60;53.40
5380;BME280;2713;42.680;23.310;2024-01-30T01:25:54;97051.78;;;3.77;53.99
5380;BME280;2713;42.680;23.310;2024-01-30T01:28:21;97047.50;;;3.91;52.79
5380;BME280;2713;42.680;23.310;2024-01-30T01:30:48;97052.56;;;3.93;53.19
5380;BME280;2713;42.680;23.310;2024-01-30T01:33:16;97044.72;;;3.80;53.58
5380;BME280;2713;42.680;23.310;2024-01-30T01:35:43;97049.84;;;3.80;53.13
5380;BME280;2713;42.680;23.310;2024-01-30T01:38:10;97051.41;;;3.69;54.42
5380;BME280;2713;42.680;23.310;2024-01-30T01:40:37;97047.22;;;3.82;54.11
5380;BME280;2713;42.680;23.310;2024-01-30T01:43:05;97048.44;;;3.90;54.68
5380;BME280;2713;42.680;23.310;2024-01-30T01:45:32;97050.50;;;3.70;53.73
5380;BME280;2713;42.680;23.310;2024-01-30T01:47:59;97040.22;;;3.70;53.55
5380;BME280;2713;42.680;23.310;2024-01-30T01:50:27;97044.97;;;3.62;54.34
5380;BME280;2713;42.680;23.310;2024-01-30T01:52:54;97042.47;;;3.60;53.69
5380;BME280;2713;42.680;23.310;2024-01-30T01:55:22;97048.72;;;3.70;53.70
5380;BME280;2713;42.680;23.310;2024-01-30T01:57:52;97055.38;;;3.74;53.68
5380;BME280;2713;42.680;23.310;2024-01-30T02:00:19;97057.25;;;3.56;54.40
5380;BME280;2713;42.680;23.310;2024-01-30T02:02:47;97055.91;;;3.65;53.98
5380;BME280;2713;42.680;23.310;2024-01-30T02:05:14;97052.50;;;3.65;53.13
5380;BME280;2713;42.680;23.310;2024-01-30T02:07:42;97052.84;;;3.58;53.27
5380;BME280;2713;42.680;23.310;2024-01-30T02:10:10;97063.69;;;3.64;54.23
5380;BME280;2713;42.680;23.310;2024-01-30T02:12:36;97055.00;;;3.66;53.16
5380;BME280;2713;42.680;23.310;2024-01-30T02:15:04;97060.63;;;3.73;52.77
5380;BME280;2713;42.680;23.310;2024-01-30T02:17:32;97053.22;;;3.67;53.80
5380;BME280;2713;42.680;23.310;2024-01-30T02:19:59;97058.38;;;3.67;53.22
5380;BME280;2713;42.680;23.310;2024-01-30T02:22:27;97047.25;;;3.52;53.43
5380;BME280;2713;42.680;23.310;2024-01-30T02:24:54;97056.34;;;3.57;53.18
5380;BME280;2713;42.680;23.310;2024-01-30T02:27:21;97046.19;;;3.40;53.14
5380;BME280;2713;42.680;23.310;2024-01-30T02:29:47;97052.50;;;3.35;53.60
5380;BME280;2713;42.680;23.310;2024-01-30T02:32:14;97056.25;;;3.59;53.44
5380;BME280;2713;42.680;23.310;2024-01-30T02:34:40;97050.75;;;3.65;53.09
5380;BME280;2713;42.680;23.310;2024-01-30T02:37:07;97048.03;;;3.23;53.58
5380;BME280;2713;42.680;23.310;2024-01-30T02:39:35;97050.41;;;3.12;53.98
5380;BME280;2713;42.680;23.310;2024-01-30T02:42:02;97052.03;;;3.28;53.80
5380;BME280;2713;42.680;23.310;2024-01-30T02:44:29;97055.97;;;3.34;54.11
5380;BME280;2713;42.680;23.310;2024-01-30T02:46:55;97052.88;;;3.43;53.01
5380;BME280;2713;42.680;23.310;2024-01-30T02:49:22;97052.81;;;3.44;53.25
5380;BME280;2713;42.680;23.310;2024-01-30T02:51:49;97049.47;;;3.28;53.89
5380;BME280;2713;42.680;23.310;2024-01-30T02:54:16;97053.28;;;3.51;54.34
5380;BME280;2713;42.680;23.310;2024-01-30T02:56:44;97049.84;;;3.36;54.21
5380;BME280;2713;42.680;23.310;2024-01-30T02:59:11;97056.34;;;3.12;54.17
5380;BME280;2713;42.680;23.310;2024-01-30T03:01:43;97058.75;;;2.99;54.28
5380;BME280;2713;42.680;23.310;2024-01-30T03:04:10;97050.59;;;3.23;54.26
5380;BME280;2713;42.680;23.310;2024-01-30T03:06:37;97047.25;;;3.36;53.83
5380;BME280;2713;42.680;23.310;2024-01-30T03:09:04;97041.56;;;3.61;53.27
5380;BME280;2713;42.680;23.310;2024-01-30T03:11:31;97048.44;;;3.61;52.85
5380;BME280;2713;42.680;23.310;2024-01-30T03:13:59;97054.81;;;3.69;52.37
5380;BME280;2713;42.680;23.310;2024-01-30T03:16:25;97052.75;;;3.60;52.95
5380;BME280;2713;42.680;23.310;2024-01-30T03:18:52;97043.72;;;3.39;54.07
5380;BME280;2713;42.680;23.310;2024-01-30T03:21:19;97046.41;;;3.51;52.94
5380;BME280;2713;42.680;23.310;2024-01-30T03:23:46;97042.22;;;3.35;53.13
5380;BME280;2713;42.680;23.310;2024-01-30T03:26:12;97043.25;;;3.46;52.19
5380;BME280;2713;42.680;23.310;2024-01-30T03:28:40;97039.66;;;3.35;53.52
5380;BME280;2713;42.680;23.310;2024-01-30T03:31:08;97045.81;;;3.46;53.13
5380;BME280;2713;42.680;23.310;2024-01-30T03:33:36;97047.38;;;3.19;52.69
5380;BME280;2713;42.680;23.310;2024-01-30T03:36:04;97029.19;;;3.38;52.95
5380;BME280;2713;42.680;23.310;2024-01-30T03:38:30;97040.13;;;2.65;53.98
5380;BME280;2713;42.680;23.310;2024-01-30T03:40:59;97042.19;;;2.89;53.94
5380;BME280;2713;42.680;23.310;2024-01-30T03:43:26;97041.25;;;3.22;52.95
5380;BME280;2713;42.680;23.310;2024-01-30T03:45:53;97028.59;;;3.03;53.36
5380;BME280;2713;42.680;23.310;2024-01-30T03:48:21;97037.28;;;3.16;52.77
5380;BME280;2713;42.680;23.310;2024-01-30T03:50:48;97040.56;;;3.34;51.38
5380;BME280;2713;42.680;23.310;2024-01-30T03:53:14;97028.25;;;3.25;52.20
5380;BME280;2713;42.680;23.310;2024-01-30T03:55:41;97037.16;;;3.33;51.42
5380;BME280;2713;42.680;23.310;2024-01-30T03:58:08;97032.44;;;3.41;51.73
5380;BME280;2713;42.680;23.310;2024-01-30T04:00:35;97018.31;;;3.48;51.69
5380;BME280;2713;42.680;23.310;2024-01-30T04:03:02;97025.78;;;3.67;51.78
5380;BME280;2713;42.680;23.310;2024-01-30T04:05:30;97020.06;;;3.32;52.21
5380;BME280;2713;42.680;23.310;2024-01-30T04:07:57;97026.56;;;3.53;51.01
5380;BME280;2713;42.680;23.310;2024-01-30T04:10:23;97022.09;;;3.27;50.99
5380;BME280;2713;42.680;23.310;2024-01-30T04:12:50;97024.84;;;3.24;51.56
5380;BME280;2713;42.680;23.310;2024-01-30T04:15:19;97019.88;;;3.21;51.83
5380;BME280;2713;42.680;23.310;2024-01-30T04:17:46;97029.75;;;3.13;51.51
5380;BME280;2713;42.680;23.310;2024-01-30T04:20:14;97027.53;;;3.07;52.85
5380;BME280;2713;42.680;23.310;2024-01-30T04:22:43;97035.06;;;2.79;53.64
5380;BME280;2713;42.680;23.310;2024-01-30T04:25:10;97027.09;;;2.99;51.87
5380;BME280;2713;42.680;23.310;2024-01-30T04:27:37;97033.19;;;2.67;53.03
5380;BME280;2713;42.680;23.310;2024-01-30T04:30:05;97029.13;;;2.78;53.20
5380;BME280;2713;42.680;23.310;2024-01-30T04:32:32;97046.22;;;3.09;52.65
5380;BME280;2713;42.680;23.310;2024-01-30T04:34:59;97038.19;;;3.15;52.21
5380;BME280;2713;42.680;23.310;2024-01-30T04:37:26;97039.59;;;3.05;52.78
5380;BME280;2713;42.680;23.310;2024-01-30T04:39:54;97036.03;;;3.23;52.52
5380;BME280;2713;42.680;23.310;2024-01-30T04:42:21;97036.94;;;3.22;51.93
5380;BME280;2713;42.680;23.310;2024-01-30T04:44:48;97037.16;;;3.33;51.72
5380;BME280;2713;42.680;23.310;2024-01-30T04:47:14;97038.69;;;3.51;52.47
5380;BME280;2713;42.680;23.310;2024-01-30T04:49:41;97042.06;;;3.22;51.38
5380;BME280;2713;42.680;23.310;2024-01-30T04:52:08;97042.47;;;3.30;50.87
5380;BME280;2713;42.680;23.310;2024-01-30T04:54:35;97057.94;;;3.44;51.50
5380;BME280;2713;42.680;23.310;2024-01-30T04:57:04;97059.16;;;3.53;51.69
5380;BME280;2713;42.680;23.310;2024-01-30T04:59:35;97057.59;;;3.50;51.84
5380;BME280;2713;42.680;23.310;2024-01-30T05:02:01;97064.22;;;3.54;51.54
5380;BME280;2713;42.680;23.310;2024-01-30T05:04:28;97062.25;;;3.44;51.26
5380;BME280;2713;42.680;23.310;2024-01-30T05:06:55;97062.63;;;3.38;51.03
5380;BME280;2713;42.680;23.310;2024-01-30T05:09:22;97065.72;;;3.58;50.48
5380;BME280;2713;42.680;23.310;2024-01-30T05:11:48;97064.22;;;3.54;50.97
5380;BME280;2713;42.680;23.310;2024-01-30T05:14:17;97061.84;;;3.51;50.62
5380;BME280;2713;42.680;23.310;2024-01-30T05:16:43;97062.22;;;3.60;51.35
5380;BME280;2713;42.680;23.310;2024-01-30T05:19:12;97058.50;;;3.49;51.20
5380;BME280;2713;42.680;23.310;2024-01-30T05:21:39;97064.94;;;3.56;51.05
5380;BME280;2713;42.680;23.310;2024-01-30T05:24:06;97050.97;;;3.46;51.39
5380;BME280;2713;42.680;23.310;2024-01-30T05:26:35;97071.22;;;3.52;50.85
5380;BME280;2713;42.680;23.310;2024-01-30T05:29:02;97072.34;;;3.63;51.78
5380;BME280;2713;42.680;23.310;2024-01-30T05:31:30;97067.41;;;3.44;52.10
5380;BME280;2713;42.680;23.310;2024-01-30T05:33:57;97060.69;;;3.41;51.96
5380;BME280;2713;42.680;23.310;2024-01-30T05:36:23;97064.78;;;3.30;52.77
5380;BME280;2713;42.680;23.310;2024-01-30T05:38:50;97061.06;;;3.35;52.11
5380;BME280;2713;42.680;23.310;2024-01-30T05:41:17;97068.69;;;3.21;52.76
5380;BME280;2713;42.680;23.310;2024-01-30T05:43:44;97065.72;;;3.13;52.00
5380;BME280;2713;42.680;23.310;2024-01-30T05:46:10;97074.31;;;3.12;52.16
5380;BME280;2713;42.680;23.310;2024-01-30T05:48:39;97078.03;;;3.22;52.40
5380;BME280;2713;42.680;23.310;2024-01-30T05:51:06;97072.44;;;3.00;52.15
5380;BME280;2713;42.680;23.310;2024-01-30T05:53:33;97067.13;;;3.03;53.03
5380;BME280;2713;42.680;23.310;2024-01-30T05:56:01;97069.53;;;2.75;52.18
5380;BME280;2713;42.680;23.310;2024-01-30T05:58:28;97069.03;;;2.68;52.77
5380;BME280;2713;42.680;23.310;2024-01-30T06:00:56;97068.22;;;2.83;53.04
5380;BME280;2713;42.680;23.310;2024-01-30T06:03:23;97067.97;;;2.57;53.01
5380;BME280;2713;42.680;23.310;2024-01-30T06:05:51;97066.75;;;2.31;53.06
5380;BME280;2713;42.680;23.310;2024-01-30T06:08:18;97070.84;;;1.50;55.54
5380;BME280;2713;42.680;23.310;2024-01-30T06:10:45;97069.59;;;1.92;54.71
5380;BME280;2713;42.680;23.310;2024-01-30T06:13:13;97081.81;;;2.37;54.48
5380;BME280;2713;42.680;23.310;2024-01-30T06:15:40;97057.13;;;2.19;53.27
5380;BME280;2713;42.680;23.310;2024-01-30T06:18:06;97074.72;;;2.42;53.18
5380;BME280;2713;42.680;23.310;2024-01-30T06:20:34;97077.16;;;2.12;53.91
5380;BME280;2713;42.680;23.310;2024-01-30T06:23:02;97076.81;;;2.18;54.02
5380;BME280;2713;42.680;23.310;2024-01-30T06:25:29;97080.97;;;2.21;54.27
5380;BME280;2713;42.680;23.310;2024-01-30T06:27:56;97079.13;;;2.71;53.82
5380;BME280;2713;42.680;23.310;2024-01-30T06:30:22;97083.09;;;2.61;54.29
5380;BME280;2713;42.680;23.310;2024-01-30T06:32:49;97078.97;;;2.74;53.39
5380;BME280;2713;42.680;23.310;2024-01-30T06:35:16;97087.59;;;2.25;54.45
5380;BME280;2713;42.680;23.310;2024-01-30T06:37:43;97082.34;;;2.11;55.05
5380;BME280;2713;42.680;23.310;2024-01-30T06:40:12;97084.94;;;1.76;55.39
5380;BME280;2713;42.680;23.310;2024-01-30T06:42:38;97086.34;;;1.82;55.98
5380;BME280;2713;42.680;23.310;2024-01-30T06:45:06;97082.84;;;2.17;54.36
5380;BME280;2713;42.680;23.310;2024-01-30T06:47:33;97081.06;;;2.19;54.48
5380;BME280;2713;42.680;23.310;2024-01-30T06:50:00;97073.81;;;2.10;55.39
5380;BME280;2713;42.680;23.310;2024-01-30T06:52:28;97084.72;;;2.31;55.26
5380;BME280;2713;42.680;23.310;2024-01-30T06:54:55;97088.38;;;2.42;54.08
5380;BME280;2713;42.680;23.310;2024-01-30T06:57:23;97084.84;;;2.61;53.27
5380;BME280;2713;42.680;23.310;2024-01-30T06:59:51;97087.91;;;2.67;52.87
5380;BME280;2713;42.680;23.310;2024-01-30T07:02:18;97096.28;;;3.02;50.51
5380;BME280;2713;42.680;23.310;2024-01-30T07:04:45;97090.50;;;3.14;50.59
5380;BME280;2713;42.680;23.310;2024-01-30T07:07:11;97096.06;;;3.06;51.90
5380;BME280;2713;42.680;23.310;2024-01-30T07:09:40;97098.84;;;3.02;50.49
5380;BME280;2713;42.680;23.310;2024-01-30T07:12:07;97096.88;;;3.07;50.41
5380;BME280;2713;42.680;23.310;2024-01-30T07:14:35;97093.50;;;2.91;50.99
5380;BME280;2713;42.680;23.310;2024-01-30T07:17:03;97092.66;;;2.90;50.41
5380;BME280;2713;42.680;23.310;2024-01-30T07:19:30;97092.06;;;2.85;51.22
5380;BME280;2713;42.680;23.310;2024-01-30T07:21:57;97068.91;;;2.38;50.88
5380;BME280;2713;42.680;23.310;2024-01-30T07:24:23;97098.41;;;2.47;51.95
5380;BME280;2713;42.680;23.310;2024-01-30T07:26:50;97096.88;;;2.27;50.64
5380;BME280;2713;42.680;23.310;2024-01-30T07:29:17;97083.84;;;2.15;51.50
5380;BME280;2713;42.680;23.310;2024-01-30T07:31:45;97090.19;;;2.08;51.03
5380;BME280;2713;42.680;23.310;2024-01-30T07:34:12;97087.53;;;2.09;52.24
5380;BME280;2713;42.680;23.310;2024-01-30T07:36:39;97092.25;;;2.34;51.50
5380;BME280;2713;42.680;23.310;2024-01-30T07:39:06;97095.44;;;2.54;51.03
5380;BME280;2713;42.680;23.310;2024-01-30T07:41:33;97089.50;;;2.70;49.75
5380;BME280;2713;42.680;23.310;2024-01-30T07:43:59;97083.78;;;2.65;49.64
5380;BME280;2713;42.680;23.310;2024-01-30T07:46:26;97088.00;;;2.66;49.50
5380;BME280;2713;42.680;23.310;2024-01-30T07:48:54;97083.38;;;2.57;49.68
5380;BME280;2713;42.680;23.310;2024-01-30T07:51:22;97083.78;;;2.80;50.25
5380;BME280;2713;42.680;23.310;2024-01-30T07:53:49;97086.25;;;2.82;49.78
5380;BME280;2713;42.680;23.310;2024-01-30T07:56:15;97080.81;;;2.72;49.18
5380;BME280;2713;42.680;23.310;2024-01-30T07:58:42;97091.31;;;2.68;49.66
5380;BME280;2713;42.680;23.310;2024-01-30T08:01:10;97083.31;;;2.74;49.40
5380;BME280;2713;42.680;23.310;2024-01-30T08:03:36;97091.72;;;3.38;48.57
5380;BME280;2713;42.680;23.310;2024-01-30T08:06:06;97078.94;;;3.67;47.26
5380;BME280;2713;42.680;23.310;2024-01-30T08:08:33;97081.38;;;3.84;46.90
5380;BME280;2713;42.680;23.310;2024-01-30T08:11:00;97079.97;;;4.65;45.98
5380;BME280;2713;42.680;23.310;2024-01-30T08:13:27;97071.47;;;5.18;44.42
5380;BME280;2713;42.680;23.310;2024-01-30T08:15:54;97076.59;;;5.05;44.01
5380;BME280;2713;42.680;23.310;2024-01-30T08:18:20;97075.84;;;5.56;43.09
5380;BME280;2713;42.680;23.310;2024-01-30T08:20:47;97071.22;;;5.35;43.29
5380;BME280;2713;42.680;23.310;2024-01-30T08:23:16;97068.78;;;5.33;44.24
5380;BME280;2713;42.680;23.310;2024-01-30T08:25:42;97080.44;;;5.78;42.74
5380;BME280;2713;42.680;23.310;2024-01-30T08:28:09;97084.13;;;6.01;42.08
5380;BME280;2713;42.680;23.310;2024-01-30T08:30:36;97065.75;;;6.05;41.74
5380;BME280;2713;42.680;23.310;2024-01-30T08:33:04;97071.94;;;6.53;40.72
5380;BME280;2713;42.680;23.310;2024-01-30T08:35:31;97072.22;;;6.74;40.81
5380;BME280;2713;42.680;23.310;2024-01-30T08:37:58;97068.72;;;6.99;40.25
5380;BME280;2713;42.680;23.310;2024-01-30T08:40:27;97074.91;;;7.09;40.21
5380;BME280;2713;42.680;23.310;2024-01-30T08:42:54;97063.41;;;7.13;39.33
5380;BME280;2713;42.680;23.310;2024-01-30T08:45:20;97061.41;;;6.93;39.68
5380;BME280;2713;42.680;23.310;2024-01-30T08:47:47;97068.06;;;6.84;39.69
5380;BME280;2713;42.680;23.310;2024-01-30T08:50:14;97079.13;;;6.86;40.01
5380;BME280;2713;42.680;23.310;2024-01-30T08:52:41;97073.41;;;6.57;40.38
5380;BME280;2713;42.680;23.310;2024-01-30T08:55:08;97067.97;;;6.73;41.12
5380;BME280;2713;42.680;23.310;2024-01-30T08:57:36;97074.78;;;6.87;40.55
5380;BME280;2713;42.680;23.310;2024-01-30T09:00:03;97080.78;;;6.75;41.11
5380;BME280;2713;42.680;23.310;2024-01-30T09:02:32;97082.50;;;6.50;41.05
5380;BME280;2713;42.680;23.310;2024-01-30T09:04:58;97081.56;;;6.26;41.62
5380;BME280;2713;42.680;23.310;2024-01-30T09:07:25;97080.31;;;6.32;41.50
5380;BME280;2713;42.680;23.310;2024-01-30T09:09:52;97079.25;;;5.96;42.95
5380;BME280;2713;42.680;23.310;2024-01-30T09:12:19;97083.91;;;6.04;43.15
5380;BME280;2713;42.680;23.310;2024-01-30T09:14:47;97070.69;;;5.96;43.71
5380;BME280;2713;42.680;23.310;2024-01-30T09:17:14;97073.59;;;5.91;44.07
5380;BME280;2713;42.680;23.310;2024-01-30T09:19:40;97073.06;;;5.59;44.89
5380;BME280;2713;42.680;23.310;2024-01-30T09:22:07;97064.25;;;5.37;44.95
5380;BME280;2713;42.680;23.310;2024-01-30T09:24:34;97062.78;;;5.06;46.81
5380;BME280;2713;42.680;23.310;2024-01-30T09:27:01;97063.47;;;5.22;45.66
5380;BME280;2713;42.680;23.310;2024-01-30T09:29:28;97061.53;;;5.26;45.68
5380;BME280;2713;42.680;23.310;2024-01-30T09:31:56;97052.88;;;5.00;46.82
5380;BME280;2713;42.680;23.310;2024-01-30T09:34:23;97054.91;;;4.81;46.25
5380;BME280;2713;42.680;23.310;2024-01-30T09:36:50;97048.28;;;4.77;47.32
5380;BME280;2713;42.680;23.310;2024-01-30T09:39:16;97052.72;;;4.75;47.31
5380;BME280;2713;42.680;23.310;2024-01-30T09:41:49;97053.91;;;4.83;47.43
5380;BME280;2713;42.680;23.310;2024-01-30T09:44:20;97056.00;;;4.91;47.34
5380;BME280;2713;42.680;23.310;2024-01-30T09:46:47;97052.81;;;4.73;46.82
5380;BME280;2713;42.680;23.310;2024-01-30T09:49:15;97055.19;;;4.76;47.15
5380;BME280;2713;42.680;23.310;2024-01-30T09:51:44;97049.38;;;4.87;47.33
5380;BME280;2713;42.680;23.310;2024-01-30T09:54:13;97047.19;;;4.81;46.50
5380;BME280;2713;42.680;23.310;2024-01-30T09:56:40;97045.03;;;4.60;47.69
5380;BME280;2713;42.680;23.310;2024-01-30T09:59:07;97050.16;;;4.75;47.75
5380;BME280;2713;42.680;23.310;2024-01-30T10:01:35;97054.72;;;4.84;46.40
5380;BME280;2713;42.680;23.310;2024-01-30T10:04:03;97048.63;;;4.99;47.63
5380;BME280;2713;42.680;23.310;2024-01-30T10:06:32;97045.78;;;4.48;47.60
5380;BME280;2713;42.680;23.310;2024-01-30T10:08:58;97034.44;;;4.65;46.95
5380;BME280;2713;42.680;23.310;2024-01-30T10:11:25;97033.03;;;4.74;47.73
5380;BME280;2713;42.680;23.310;2024-01-30T10:13:52;97002.13;;;4.74;47.54
5380;BME280;2713;42.680;23.310;2024-01-30T10:16:19;97032.84;;;4.77;47.44
5380;BME280;2713;42.680;23.310;2024-01-30T10:18:46;97003.94;;;4.86;46.73
5380;BME280;2713;42.680;23.310;2024-01-30T10:21:13;97038.84;;;5.04;46.85
5380;BME280;2713;42.680;23.310;2024-01-30T10:23:41;97030.00;;;5.08;47.01
5380;BME280;2713;42.680;23.310;2024-01-30T10:26:10;97021.88;;;4.87;46.53
5380;BME280;2713;42.680;23.310;2024-01-30T10:28:37;97032.09;;;4.89;46.66
5380;BME280;2713;42.680;23.310;2024-01-30T10:31:04;97028.97;;;4.84;46.49
5380;BME280;2713;42.680;23.310;2024-01-30T10:33:31;97030.25;;;4.77;47.13
5380;BME280;2713;42.680;23.310;2024-01-30T10:36:00;97029.53;;;4.75;47.27
5380;BME280;2713;42.680;23.310;2024-01-30T10:38:29;97024.91;;;4.80;47.00
5380;BME280;2713;42.680;23.310;2024-01-30T10:40:58;97029.75;;;4.72;46.98
5380;BME280;2713;42.680;23.310;2024-01-30T10:43:31;97031.81;;;4.38;47.25
5380;BME280;2713;42.680;23.310;2024-01-30T10:46:10;97032.16;;;4.60;46.73
5380;BME280;2713;42.680;23.310;2024-01-30T10:48:42;97019.09;;;4.49;47.32
5380;BME280;2713;42.680;23.310;2024-01-30T10:51:10;97020.88;;;4.35;46.73
5380;BME280;2713;42.680;23.310;2024-01-30T10:53:39;97029.03;;;3.85;48.54
5380;BME280;2713;42.680;23.310;2024-01-30T10:56:08;97001.78;;;3.52;49.51
5380;BME280;2713;42.680;23.310;2024-01-30T10:58:35;97010.16;;;3.70;49.54
5380;BME280;2713;42.680;23.310;2024-01-30T11:01:03;97004.78;;;4.03;48.61
5380;BME280;2713;42.680;23.310;2024-01-30T11:03:32;97014.13;;;4.46;47.97
5380;BME280;2713;42.680;23.310;2024-01-30T11:06:00;97010.91;;;4.57;48.21
5380;BME280;2713;42.680;23.310;2024-01-30T11:08:27;97006.06;;;4.38;48.72
5380;BME280;2713;42.680;23.310;2024-01-30T11:10:55;96996.44;;;4.14;49.30
5380;BME280;2713;42.680;23.310;2024-01-30T11:13:27;97004.84;;;4.44;48.72
5380;BME280;2713;42.680;23.310;2024-01-30T11:15:55;96993.09;;;4.81;47.87
5380;BME280;2713;42.680;23.310;2024-01-30T11:18:25;96990.28;;;4.98;46.68
5380;BME280;2713;42.680;23.310;2024-01-30T11:20:52;96993.59;;;5.00;47.18
5380;BME280;2713;42.680;23.310;2024-01-30T11:23:22;96993.47;;;4.75;47.19
5380;BME280;2713;42.680;23.310;2024-01-30T11:25:49;96994.41;;;4.74;47.22
5380;BME280;2713;42.680;23.310;2024-01-30T11:28:15;96986.88;;;4.01;49.23
5380;BME280;2713;42.680;23.310;2024-01-30T11:30:44;96984.41;;;4.00;49.58
5380;BME280;2713;42.680;23.310;2024-01-30T11:33:14;96989.88;;;4.22;48.76
5380;BME280;2713;42.680;23.310;2024-01-30T11:35:42;96991.09;;;4.98;52.07
5380;BME280;2713;42.680;23.310;2024-01-30T11:38:10;96986.22;;;5.21;47.93
5380;BME280;2713;42.680;23.310;2024-01-30T11:40:38;96988.44;;;5.39;50.44
5380;BME280;2713;42.680;23.310;2024-01-30T11:43:06;96993.34;;;5.17;46.49
5380;BME280;2713;42.680;23.310;2024-01-30T11:45:35;96987.97;;;4.67;47.94
5380;BME280;2713;42.680;23.310;2024-01-30T11:48:04;96987.03;;;4.41;48.12
5380;BME280;2713;42.680;23.310;2024-01-30T11:50:33;96991.63;;;4.22;48.55
5380;BME280;2713;42.680;23.310;2024-01-30T11:53:00;96988.97;;;3.81;49.19
5380;BME280;2713;42.680;23.310;2024-01-30T11:55:28;96983.25;;;4.18;48.61
5380;BME280;2713;42.680;23.310;2024-01-30T11:57:55;96979.06;;;4.31;48.76
5380;BME280;2713;42.680;23.310;2024-01-30T12:00:22;96984.00;;;4.34;48.52
5380;BME280;2713;42.680;23.310;2024-01-30T12:02:50;96975.94;;;3.98;49.43
5380;BME280;2713;42.680;23.310;2024-01-30T12:05:19;96970.31;;;4.20;49.06
5380;BME280;2713;42.680;23.310;2024-01-30T12:07:45;96958.09;;;4.09;49.06
5380;BME280;2713;42.680;23.310;2024-01-30T12:10:13;96959.84;;;4.23;49.58
5380;BME280;2713;42.680;23.310;2024-01-30T12:12:41;96957.41;;;4.48;48.93
5380;BME280;2713;42.680;23.310;2024-01-30T12:15:10;96950.75;;;4.17;49.58
5380;BME280;2713;42.680;23.310;2024-01-30T12:17:36;96935.75;;;4.38;48.36
5380;BME280;2713;42.680;23.310;2024-01-30T12:20:04;96943.47;;;4.65;48.53
5380;BME280;2713;42.680;23.310;2024-01-30T12:22:35;96938.28;;;4.79;47.85
5380;BME280;2713;42.680;23.310;2024-01-30T12:25:04;96937.97;;;5.10;47.64
5380;BME280;2713;42.680;23.310;2024-01-30T12:27:31;96934.69;;;5.46;50.55
5380;BME280;2713;42.680;23.310;2024-01-30T12:29:58;96941.09;;;5.40;45.87
5380;BME280;2713;42.680;23.310;2024-01-30T12:32:25;96933.56;;;5.37;46.28
5380;BME280;2713;42.680;23.310;2024-01-30T12:34:55;96933.38;;;5.66;46.40
5380;BME280;2713;42.680;23.310;2024-01-30T12:37:22;96930.59;;;5.56;46.18
5380;BME280;2713;42.680;23.310;2024-01-30T12:39:52;96929.75;;;5.30;46.41
5380;BME280;2713;42.680;23.310;2024-01-30T12:42:20;96927.03;;;5.19;46.25
5380;BME280;2713;42.680;23.310;2024-01-30T12:44:48;96925.41;;;5.31;46.87
5380;BME280;2713;42.680;23.310;2024-01-30T12:47:15;96928.84;;;5.56;46.02
5380;BME280;2713;42.680;23.310;2024-01-30T12:49:42;96922.25;;;5.90;45.91
5380;BME280;2713;42.680;23.310;2024-01-30T12:52:09;96922.66;;;5.72;45.36
5380;BME280;2713;42.680;23.310;2024-01-30T12:54:37;96915.19;;;5.29;46.68
5380;BME280;2713;42.680;23.310;2024-01-30T12:57:05;96914.38;;;5.41;45.57
5380;BME280;2713;42.680;23.310;2024-01-30T12:59:32;96915.94;;;5.82;45.36
5380;BME280;2713;42.680;23.310;2024-01-30T13:02:00;96906.88;;;5.51;45.78
5380;BME280;2713;42.680;23.310;2024-01-30T13:04:28;96909.53;;;5.75;45.16
5380;BME280;2713;42.680;23.310;2024-01-30T13:06:55;96907.16;;;5.97;44.62
5380;BME280;2713;42.680;23.310;2024-01-30T13:09:22;96910.53;;;6.10;43.76
5380;BME280;2713;42.680;23.310;2024-01-30T13:11:49;96895.69;;;6.01;44.19
5380;BME280;2713;42.680;23.310;2024-01-30T13:14:17;96895.50;;;5.53;45.10
5380;BME280;2713;42.680;23.310;2024-01-30T13:16:45;96908.09;;;5.71;45.42
5380;BME280;2713;42.680;23.310;2024-01-30T13:19:12;96898.59;;;5.33;46.06
5380;BME280;2713;42.680;23.310;2024-01-30T13:21:38;96895.19;;;5.20;46.81